sensor_id;sensor_type;location;lat;lon;timestamp;temperature;humidity
11025;DHT22;22890;51.820;8.682;2024-02-26T00:00:50;4.20;99.90
11025;DHT22;22890;51.820;8.682;2024-02-26T00:03:17;4.30;99.90
11025;DHT22;22890;51.820;8.682;2024-02-26T00:05:44;4.30;99.90
11025;DHT22;22890;51.820;8.682;2024-02-26T00:08:11;4.30;99.90
11025;DHT22;22890;51.820;8.682;2024-02-26T00:10:38;4.30;99.90
11025;DHT22;22890;51.820;8.682;2024-02-26T00:15:32;4.40;99.90
11025;DHT22;22890;51.820;8.682;2024-02-26T00:18:01;4.40;99.90
11025;DHT22;22890;51.820;8.682;2024-02-26T00:30:17;4.60;99.90
11025;DHT22;22890;51.820;8.682;2024-02-26T00:35:11;4.60;99.90
11025;DHT22;22890;51.820;8.682;2024-02-26T00:37:38;4.60;99.90
11025;DHT22;22890;51.820;8.682;2024-02-26T00:42:32;4.60;99.90
11025;DHT22;22890;51.820;8.682;2024-02-26T00:47:26;4.60;99.90
11025;DHT22;22890;51.820;8.682;2024-02-26T00:52:20;4.60;99.90
11025;DHT22;22890;51.820;8.682;2024-02-26T00:54:47;4.70;99.90
11025;DHT22;22890;51.820;8.682;2024-02-26T00:57:14;4.60;99.90
11025;DHT22;22890;51.820;8.682;2024-02-26T00:59:40;4.60;99.90
11025;DHT22;22890;51.820;8.682;2024-02-26T01:02:07;4.60;99.90
11025;DHT22;22890;51.820;8.682;2024-02-26T01:04:34;4.60;99.90
11025;DHT22;22890;51.820;8.682;2024-02-26T01:07:01;4.50;99.90
11025;DHT22;22890;51.820;8.682;2024-02-26T01:11:55;4.60;99.90
11025;DHT22;22890;51.820;8.682;2024-02-26T01:14:21;4.50;99.90
11025;DHT22;22890;51.820;8.682;2024-02-26T01:19:15;4.70;99.90
11025;DHT22;22890;51.820;8.682;2024-02-26T01:21:42;4.70;99.90
11025;DHT22;22890;51.820;8.682;2024-02-26T01:24:09;4.70;99.90
11025;DHT22;22890;51.820;8.682;2024-02-26T01:29:03;4.80;99.90
11025;DHT22;22890;51.820;8.682;2024-02-26T01:31:29;4.80;99.90
11025;DHT22;22890;51.820;8.682;2024-02-26T01:33:56;4.80;99.90
11025;DHT22;22890;51.820;8.682;2024-02-26T01:36:23;4.80;99.90
11025;DHT22;22890;51.820;8.682;2024-02-26T01:41:17;4.80;99.90
11025;DHT22;22890;51.820;8.682;2024-02-26T01:43:44;4.70;99.90
11025;DHT22;22890;51.820;8.682;2024-02-26T01:46:14;4.70;99.90
11025;DHT22;22890;51.820;8.682;2024-02-26T01:48:41;4.60;99.90
11025;DHT22;22890;51.820;8.682;2024-02-26T01:51:10;4.60;99.90
11025;DHT22;22890;51.820;8.682;2024-02-26T01:56:07;4.50;99.90
11025;DHT22;22890;51.820;8.682;2024-02-26T01:58:35;4.50;99.90
11025;DHT22;22890;51.820;8.682;2024-02-26T02:03:30;4.50;99.90
11025;DHT22;22890;51.820;8.682;2024-02-26T02:05:57;4.60;99.90
11025;DHT22;22890;51.820;8.682;2024-02-26T02:08:24;4.60;99.90
11025;DHT22;22890;51.820;8.682;2024-02-26T02:10:51;4.70;99.90
11025;DHT22;22890;51.820;8.682;2024-02-26T02:13:18;4.80;99.90
11025;DHT22;22890;51.820;8.682;2024-02-26T02:15:45;4.80;99.90
11025;DHT22;22890;51.820;8.682;2024-02-26T02:18:11;4.80;99.90
11025;DHT22;22890;51.820;8.682;2024-02-26T02:20:38;4.80;99.90
11025;DHT22;22890;51.820;8.682;2024-02-26T02:23:05;4.90;99.90
11025;DHT22;22890;51.820;8.682;2024-02-26T02:25:32;4.90;99.90
11025;DHT22;22890;51.820;8.682;2024-02-26T02:27:58;4.90;99.90
11025;DHT22;22890;51.820;8.682;2024-02-26T02:30:28;5.00;99.90
11025;DHT22;22890;51.820;8.682;2024-02-26T02:32:57;5.00;99.90
11025;DHT22;22890;51.820;8.682;2024-02-26T02:35:25;5.00;99.90
11025;DHT22;22890;51.820;8.682;2024-02-26T02:37:53;5.00;99.90
11025;DHT22;22890;51.820;8.682;2024-02-26T02:40:20;5.00;99.90
11025;DHT22;22890;51.820;8.682;2024-02-26T02:45:14;5.00;99.90
11025;DHT22;22890;51.820;8.682;2024-02-26T02:47:40;5.00;99.90
11025;DHT22;22890;51.820;8.682;2024-02-26T02:52:35;5.10;99.90
11025;DHT22;22890;51.820;8.682;2024-02-26T02:55:02;5.20;99.90
11025;DHT22;22890;51.820;8.682;2024-02-26T02:57:30;5.20;99.90
11025;DHT22;22890;51.820;8.682;2024-02-26T02:59:57;5.30;99.90
11025;DHT22;22890;51.820;8.682;2024-02-26T03:02:24;5.40;99.90
11025;DHT22;22890;51.820;8.682;2024-02-26T03:04:53;5.50;99.90
11025;DHT22;22890;51.820;8.682;2024-02-26T03:09:47;5.70;99.90
11025;DHT22;22890;51.820;8.682;2024-02-26T03:12:14;5.80;99.90
11025;DHT22;22890;51.820;8.682;2024-02-26T03:14:41;5.90;99.90
11025;DHT22;22890;51.820;8.682;2024-02-26T03:17:08;5.90;99.90
11025;DHT22;22890;51.820;8.682;2024-02-26T03:19:34;6.00;99.90
11025;DHT22;22890;51.820;8.682;2024-02-26T03:22:01;6.00;99.90
11025;DHT22;22890;51.820;8.682;2024-02-26T03:24:28;6.10;99.90
11025;DHT22;22890;51.820;8.682;2024-02-26T03:26:55;6.10;99.90
11025;DHT22;22890;51.820;8.682;2024-02-26T03:29:22;6.20;99.90
11025;DHT22;22890;51.820;8.682;2024-02-26T03:31:49;6.30;99.90
11025;DHT22;22890;51.820;8.682;2024-02-26T03:34:16;6.30;99.90
11025;DHT22;22890;51.820;8.682;2024-02-26T03:36:44;6.30;99.90
11025;DHT22;22890;51.820;8.682;2024-02-26T03:39:11;6.40;99.90
11025;DHT22;22890;51.820;8.682;2024-02-26T03:44:05;6.40;99.90
11025;DHT22;22890;51.820;8.682;2024-02-26T03:46:32;6.50;99.90
11025;DHT22;22890;51.820;8.682;2024-02-26T03:48:59;6.50;99.90
11025;DHT22;22890;51.820;8.682;2024-02-26T03:51:26;6.50;99.90
11025;DHT22;22890;51.820;8.682;2024-02-26T03:53:54;6.50;99.90
11025;DHT22;22890;51.820;8.682;2024-02-26T03:56:21;6.60;99.90
11025;DHT22;22890;51.820;8.682;2024-02-26T03:58:48;6.60;99.90
11025;DHT22;22890;51.820;8.682;2024-02-26T04:01:15;6.70;99.90
11025;DHT22;22890;51.820;8.682;2024-02-26T04:06:11;6.70;99.90
11025;DHT22;22890;51.820;8.682;2024-02-26T04:08:38;6.70;99.90
11025;DHT22;22890;51.820;8.682;2024-02-26T04:11:04;6.70;99.90
11025;DHT22;22890;51.820;8.682;2024-02-26T04:16:01;6.80;99.90
11025;DHT22;22890;51.820;8.682;2024-02-26T04:18:29;6.80;99.90
11025;DHT22;22890;51.820;8.682;2024-02-26T04:20:56;6.80;99.90
11025;DHT22;22890;51.820;8.682;2024-02-26T04:23:23;6.80;99.90
11025;DHT22;22890;51.820;8.682;2024-02-26T04:25:50;7.50;99.90
11025;DHT22;22890;51.820;8.682;2024-02-26T04:28:17;6.90;99.90
11025;DHT22;22890;51.820;8.682;2024-02-26T04:30:44;6.80;99.90
11025;DHT22;22890;51.820;8.682;2024-02-26T04:33:10;6.70;99.90
11025;DHT22;22890;51.820;8.682;2024-02-26T04:35:37;6.80;99.90
11025;DHT22;22890;51.820;8.682;2024-02-26T04:38:04;6.80;99.90
11025;DHT22;22890;51.820;8.682;2024-02-26T04:40:30;6.80;99.90
11025;DHT22;22890;51.820;8.682;2024-02-26T04:42:57;6.80;99.90
11025;DHT22;22890;51.820;8.682;2024-02-26T04:45:24;6.80;99.90
11025;DHT22;22890;51.820;8.682;2024-02-26T04:47:51;6.80;99.90
11025;DHT22;22890;51.820;8.682;2024-02-26T04:50:17;6.70;99.90
11025;DHT22;22890;51.820;8.682;2024-02-26T04:55:11;6.70;99.90
11025;DHT22;22890;51.820;8.682;2024-02-26T04:57:38;6.70;99.90
11025;DHT22;22890;51.820;8.682;2024-02-26T05:00:05;6.80;99.90
11025;DHT22;22890;51.820;8.682;2024-02-26T05:02:32;6.80;99.90
11025;DHT22;22890;51.820;8.682;2024-02-26T05:05:00;7.10;99.90
11025;DHT22;22890;51.820;8.682;2024-02-26T05:07:26;6.80;99.90
11025;DHT22;22890;51.820;8.682;2024-02-26T05:09:53;6.80;99.90
11025;DHT22;22890;51.820;8.682;2024-02-26T05:14:47;6.80;99.90
11025;DHT22;22890;51.820;8.682;2024-02-26T05:19:41;6.90;99.90
11025;DHT22;22890;51.820;8.682;2024-02-26T05:24:37;6.90;99.90
11025;DHT22;22890;51.820;8.682;2024-02-26T05:27:04;6.90;99.90
11025;DHT22;22890;51.820;8.682;2024-02-26T05:29:31;6.80;99.90
11025;DHT22;22890;51.820;8.682;2024-02-26T05:34:24;6.80;99.90
11025;DHT22;22890;51.820;8.682;2024-02-26T05:36:51;6.80;99.90
11025;DHT22;22890;51.820;8.682;2024-02-26T05:39:18;6.70;99.90
11025;DHT22;22890;51.820;8.682;2024-02-26T05:41:46;6.60;99.90
11025;DHT22;22890;51.820;8.682;2024-02-26T05:44:13;6.70;99.90
11025;DHT22;22890;51.820;8.682;2024-02-26T05:46:41;6.70;99.90
11025;DHT22;22890;51.820;8.682;2024-02-26T05:49:08;6.80;99.90
11025;DHT22;22890;51.820;8.682;2024-02-26T05:51:35;6.70;99.90
11025;DHT22;22890;51.820;8.682;2024-02-26T05:54:02;6.70;99.90
11025;DHT22;22890;51.820;8.682;2024-02-26T05:56:28;7.00;99.90
11025;DHT22;22890;51.820;8.682;2024-02-26T05:58:55;6.80;99.90
11025;DHT22;22890;51.820;8.682;2024-02-26T06:01:22;6.80;99.90
11025;DHT22;22890;51.820;8.682;2024-02-26T06:03:49;6.80;99.90
11025;DHT22;22890;51.820;8.682;2024-02-26T06:06:16;6.80;99.90
11025;DHT22;22890;51.820;8.682;2024-02-26T06:13:38;6.80;99.90
11025;DHT22;22890;51.820;8.682;2024-02-26T06:16:04;6.90;99.90
11025;DHT22;22890;51.820;8.682;2024-02-26T06:18:32;6.90;99.90
11025;DHT22;22890;51.820;8.682;2024-02-26T06:20:59;7.00;99.90
11025;DHT22;22890;51.820;8.682;2024-02-26T06:23:26;6.90;99.90
11025;DHT22;22890;51.820;8.682;2024-02-26T06:28:20;6.90;99.90
11025;DHT22;22890;51.820;8.682;2024-02-26T06:30:47;6.90;99.90
11025;DHT22;22890;51.820;8.682;2024-02-26T06:33:13;6.90;99.90
11025;DHT22;22890;51.820;8.682;2024-02-26T06:35:41;6.90;99.90
11025;DHT22;22890;51.820;8.682;2024-02-26T06:38:08;6.90;99.90
11025;DHT22;22890;51.820;8.682;2024-02-26T06:40:35;7.00;99.90
11025;DHT22;22890;51.820;8.682;2024-02-26T06:43:02;7.00;99.90
11025;DHT22;22890;51.820;8.682;2024-02-26T06:45:29;7.00;99.90
11025;DHT22;22890;51.820;8.682;2024-02-26T06:47:56;7.00;99.90
11025;DHT22;22890;51.820;8.682;2024-02-26T06:50:23;7.00;99.90
11025;DHT22;22890;51.820;8.682;2024-02-26T06:52:49;7.00;99.90
11025;DHT22;22890;51.820;8.682;2024-02-26T06:55:16;7.00;99.90
11025;DHT22;22890;51.820;8.682;2024-02-26T06:57:43;7.10;99.90
11025;DHT22;22890;51.820;8.682;2024-02-26T07:00:11;7.00;99.90
11025;DHT22;22890;51.820;8.682;2024-02-26T07:02:41;7.10;99.90
11025;DHT22;22890;51.820;8.682;2024-02-26T07:05:08;7.10;99.90
11025;DHT22;22890;51.820;8.682;2024-02-26T07:07:35;7.10;99.90
11025;DHT22;22890;51.820;8.682;2024-02-26T07:10:02;7.00;99.90
11025;DHT22;22890;51.820;8.682;2024-02-26T07:12:30;7.10;99.90
11025;DHT22;22890;51.820;8.682;2024-02-26T07:14:57;7.10;99.90
11025;DHT22;22890;51.820;8.682;2024-02-26T07:19:52;7.10;99.90
11025;DHT22;22890;51.820;8.682;2024-02-26T07:22:19;7.20;99.90
11025;DHT22;22890;51.820;8.682;2024-02-26T07:24:46;7.20;99.90
11025;DHT22;22890;51.820;8.682;2024-02-26T07:27:13;7.20;99.90
11025;DHT22;22890;51.820;8.682;2024-02-26T07:29:39;7.20;99.90
11025;DHT22;22890;51.820;8.682;2024-02-26T07:32:06;7.20;99.90
11025;DHT22;22890;51.820;8.682;2024-02-26T07:34:33;7.20;99.90
11025;DHT22;22890;51.820;8.682;2024-02-26T07:37:00;7.20;99.90
11025;DHT22;22890;51.820;8.682;2024-02-26T07:41:54;7.20;99.90
11025;DHT22;22890;51.820;8.682;2024-02-26T07:44:21;7.30;99.90
11025;DHT22;22890;51.820;8.682;2024-02-26T07:46:48;7.30;99.90
11025;DHT22;22890;51.820;8.682;2024-02-26T07:51:42;7.30;99.90
11025;DHT22;22890;51.820;8.682;2024-02-26T07:54:08;7.40;99.90
11025;DHT22;22890;51.820;8.682;2024-02-26T07:56:35;7.40;99.90
11025;DHT22;22890;51.820;8.682;2024-02-26T08:01:29;7.40;99.90
11025;DHT22;22890;51.820;8.682;2024-02-26T08:03:56;7.40;99.90
11025;DHT22;22890;51.820;8.682;2024-02-26T08:06:23;7.30;99.90
11025;DHT22;22890;51.820;8.682;2024-02-26T08:08:51;7.40;99.90
11025;DHT22;22890;51.820;8.682;2024-02-26T08:11:18;7.40;99.90
11025;DHT22;22890;51.820;8.682;2024-02-26T08:13:45;7.40;99.90
11025;DHT22;22890;51.820;8.682;2024-02-26T08:16:11;7.40;99.90
11025;DHT22;22890;51.820;8.682;2024-02-26T08:18:38;7.50;99.90
11025;DHT22;22890;51.820;8.682;2024-02-26T08:21:05;7.50;99.90
11025;DHT22;22890;51.820;8.682;2024-02-26T08:23:32;7.50;99.90
11025;DHT22;22890;51.820;8.682;2024-02-26T08:25:59;7.60;99.90
11025;DHT22;22890;51.820;8.682;2024-02-26T08:28:26;7.60;99.90
11025;DHT22;22890;51.820;8.682;2024-02-26T08:30:52;7.60;99.90
11025;DHT22;22890;51.820;8.682;2024-02-26T08:33:19;7.70;99.90
11025;DHT22;22890;51.820;8.682;2024-02-26T08:35:46;7.70;99.90
11025;DHT22;22890;51.820;8.682;2024-02-26T08:38:13;7.80;99.90
11025;DHT22;22890;51.820;8.682;2024-02-26T08:40:39;7.80;99.90
11025;DHT22;22890;51.820;8.682;2024-02-26T08:43:06;7.90;99.90
11025;DHT22;22890;51.820;8.682;2024-02-26T08:45:33;8.00;99.90
11025;DHT22;22890;51.820;8.682;2024-02-26T08:48:00;8.00;99.90
11025;DHT22;22890;51.820;8.682;2024-02-26T08:50:27;8.10;99.90
11025;DHT22;22890;51.820;8.682;2024-02-26T08:52:53;8.10;99.90
11025;DHT22;22890;51.820;8.682;2024-02-26T08:55:20;8.20;99.90
11025;DHT22;22890;51.820;8.682;2024-02-26T08:57:47;8.20;99.90
11025;DHT22;22890;51.820;8.682;2024-02-26T09:00:14;8.30;99.90
11025;DHT22;22890;51.820;8.682;2024-02-26T09:02:44;8.30;99.90
11025;DHT22;22890;51.820;8.682;2024-02-26T09:05:11;8.40;99.90
11025;DHT22;22890;51.820;8.682;2024-02-26T09:07:38;8.40;99.90
11025;DHT22;22890;51.820;8.682;2024-02-26T09:10:05;8.50;99.90
11025;DHT22;22890;51.820;8.682;2024-02-26T09:12:32;8.50;99.90
11025;DHT22;22890;51.820;8.682;2024-02-26T09:14:59;8.60;99.90
11025;DHT22;22890;51.820;8.682;2024-02-26T09:17:26;8.60;99.90
11025;DHT22;22890;51.820;8.682;2024-02-26T09:19:53;8.70;99.90
11025;DHT22;22890;51.820;8.682;2024-02-26T09:24:46;8.70;99.90
11025;DHT22;22890;51.820;8.682;2024-02-26T09:27:13;8.80;99.90
11025;DHT22;22890;51.820;8.682;2024-02-26T09:29:40;8.80;99.90
11025;DHT22;22890;51.820;8.682;2024-02-26T09:32:06;8.80;99.90
11025;DHT22;22890;51.820;8.682;2024-02-26T09:34:33;8.80;99.90
11025;DHT22;22890;51.820;8.682;2024-02-26T09:37:00;8.80;99.90
11025;DHT22;22890;51.820;8.682;2024-02-26T09:39:41;8.80;99.90
11025;DHT22;22890;51.820;8.682;2024-02-26T09:42:09;8.90;99.90
11025;DHT22;22890;51.820;8.682;2024-02-26T09:44:40;8.90;99.90
11025;DHT22;22890;51.820;8.682;2024-02-26T09:47:09;8.90;99.90
11025;DHT22;22890;51.820;8.682;2024-02-26T09:49:37;8.90;99.90
11025;DHT22;22890;51.820;8.682;2024-02-26T09:52:04;8.90;99.90
11025;DHT22;22890;51.820;8.682;2024-02-26T09:54:33;9.00;99.90
11025;DHT22;22890;51.820;8.682;2024-02-26T09:57:02;9.00;99.90
11025;DHT22;22890;51.820;8.682;2024-02-26T09:59:39;9.10;99.90
11025;DHT22;22890;51.820;8.682;2024-02-26T10:02:14;9.30;99.90
11025;DHT22;22890;51.820;8.682;2024-02-26T10:04:42;9.20;99.90
11025;DHT22;22890;51.820;8.682;2024-02-26T10:07:15;9.30;99.90
11025;DHT22;22890;51.820;8.682;2024-02-26T10:09:41;9.30;99.90
11025;DHT22;22890;51.820;8.682;2024-02-26T10:12:10;9.40;99.90
11025;DHT22;22890;51.820;8.682;2024-02-26T10:14:38;9.40;99.90
11025;DHT22;22890;51.820;8.682;2024-02-26T10:17:07;9.40;99.90
11025;DHT22;22890;51.820;8.682;2024-02-26T10:19:35;9.40;99.90
11025;DHT22;22890;51.820;8.682;2024-02-26T10:22:05;9.40;99.90
11025;DHT22;22890;51.820;8.682;2024-02-26T10:24:31;9.50;99.90
11025;DHT22;22890;51.820;8.682;2024-02-26T10:26:58;9.50;99.90
11025;DHT22;22890;51.820;8.682;2024-02-26T10:29:26;9.50;99.90
11025;DHT22;22890;51.820;8.682;2024-02-26T10:31:52;9.60;99.90
11025;DHT22;22890;51.820;8.682;2024-02-26T10:34:20;9.60;99.90
11025;DHT22;22890;51.820;8.682;2024-02-26T10:36:47;9.60;99.90
11025;DHT22;22890;51.820;8.682;2024-02-26T10:39:20;9.60;99.90
11025;DHT22;22890;51.820;8.682;2024-02-26T10:41:47;9.60;99.90
11025;DHT22;22890;51.820;8.682;2024-02-26T10:44:14;9.60;99.90
11025;DHT22;22890;51.820;8.682;2024-02-26T10:46:46;9.60;99.90
11025;DHT22;22890;51.820;8.682;2024-02-26T10:49:15;9.70;99.90
11025;DHT22;22890;51.820;8.682;2024-02-26T10:51:51;9.70;99.90
11025;DHT22;22890;51.820;8.682;2024-02-26T10:54:19;9.70;99.90
11025;DHT22;22890;51.820;8.682;2024-02-26T10:56:48;9.70;99.90
11025;DHT22;22890;51.820;8.682;2024-02-26T10:59:16;9.70;99.90
11025;DHT22;22890;51.820;8.682;2024-02-26T11:01:48;9.80;99.90
11025;DHT22;22890;51.820;8.682;2024-02-26T11:04:16;9.80;99.90
11025;DHT22;22890;51.820;8.682;2024-02-26T11:06:45;9.80;99.90
11025;DHT22;22890;51.820;8.682;2024-02-26T11:09:13;9.90;99.90
11025;DHT22;22890;51.820;8.682;2024-02-26T11:11:41;9.90;99.90
11025;DHT22;22890;51.820;8.682;2024-02-26T11:14:09;9.80;99.90
11025;DHT22;22890;51.820;8.682;2024-02-26T11:16:37;9.80;99.90
11025;DHT22;22890;51.820;8.682;2024-02-26T11:19:06;9.80;99.90
11025;DHT22;22890;51.820;8.682;2024-02-26T11:21:36;9.80;99.90
11025;DHT22;22890;51.820;8.682;2024-02-26T11:24:09;9.80;99.90
11025;DHT22;22890;51.820;8.682;2024-02-26T11:26:42;9.80;99.90
11025;DHT22;22890;51.820;8.682;2024-02-26T11:29:13;9.90;99.90
11025;DHT22;22890;51.820;8.682;2024-02-26T11:31:42;9.90;99.90
11025;DHT22;22890;51.820;8.682;2024-02-26T11:34:09;9.90;99.90
11025;DHT22;22890;51.820;8.682;2024-02-26T11:36:37;9.90;99.90
11025;DHT22;22890;51.820;8.682;2024-02-26T11:39:06;9.90;99.90
11025;DHT22;22890;51.820;8.682;2024-02-26T11:41:33;9.90;99.90
11025;DHT22;22890;51.820;8.682;2024-02-26T11:44:01;9.90;99.90
11025;DHT22;22890;51.820;8.682;2024-02-26T11:46:33;9.90;99.90
11025;DHT22;22890;51.820;8.682;2024-02-26T11:49:01;9.80;99.90
11025;DHT22;22890;51.820;8.682;2024-02-26T11:51:33;9.80;99.90
11025;DHT22;22890;51.820;8.682;2024-02-26T11:54:00;9.80;99.90
11025;DHT22;22890;51.820;8.682;2024-02-26T11:56:27;9.80;99.90
11025;DHT22;22890;51.820;8.682;2024-02-26T11:59:11;9.80;99.90
11025;DHT22;22890;51.820;8.682;2024-02-26T12:01:40;9.80;99.90
11025;DHT22;22890;51.820;8.682;2024-02-26T12:04:26;9.90;99.90
11025;DHT22;22890;51.820;8.682;2024-02-26T12:06:56;9.90;99.90
11025;DHT22;22890;51.820;8.682;2024-02-26T12:09:40;9.90;99.90
11025;DHT22;22890;51.820;8.682;2024-02-26T12:12:13;10.00;99.90
11025;DHT22;22890;51.820;8.682;2024-02-26T12:14:55;10.00;99.90
11025;DHT22;22890;51.820;8.682;2024-02-26T12:17:24;9.90;99.90
11025;DHT22;22890;51.820;8.682;2024-02-26T12:19:51;10.00;99.90
11025;DHT22;22890;51.820;8.682;2024-02-26T12:22:19;10.00;99.90
11025;DHT22;22890;51.820;8.682;2024-02-26T12:24:46;9.90;99.90
11025;DHT22;22890;51.820;8.682;2024-02-26T12:27:14;9.90;99.90
11025;DHT22;22890;51.820;8.682;2024-02-26T12:29:42;9.90;99.90
11025;DHT22;22890;51.820;8.682;2024-02-26T12:32:08;9.90;99.90
11025;DHT22;22890;51.820;8.682;2024-02-26T12:34:35;10.00;99.90
11025;DHT22;22890;51.820;8.682;2024-02-26T12:37:03;10.00;99.90
11025;DHT22;22890;51.820;8.682;2024-02-26T12:39:29;10.00;99.90
11025;DHT22;22890;51.820;8.682;2024-02-26T12:41:58;10.00;99.90
11025;DHT22;22890;51.820;8.682;2024-02-26T12:44:26;10.00;99.90
11025;DHT22;22890;51.820;8.682;2024-02-26T12:47:01;9.90;99.90
11025;DHT22;22890;51.820;8.682;2024-02-26T12:49:30;11.60;99.90
11025;DHT22;22890;51.820;8.682;2024-02-26T12:51:57;9.80;99.90
11025;DHT22;22890;51.820;8.682;2024-02-26T12:54:31;9.70;99.90
11025;DHT22;22890;51.820;8.682;2024-02-26T12:57:00;9.70;99.90
11025;DHT22;22890;51.820;8.682;2024-02-26T12:59:29;9.60;99.90
11025;DHT22;22890;51.820;8.682;2024-02-26T13:01:57;9.60;99.90
11025;DHT22;22890;51.820;8.682;2024-02-26T13:04:26;9.60;99.90
11025;DHT22;22890;51.820;8.682;2024-02-26T13:06:54;9.60;99.90
11025;DHT22;22890;51.820;8.682;2024-02-26T13:09:21;9.60;99.90
11025;DHT22;22890;51.820;8.682;2024-02-26T13:11:55;9.60;99.90
11025;DHT22;22890;51.820;8.682;2024-02-26T13:14:22;9.60;99.90
11025;DHT22;22890;51.820;8.682;2024-02-26T13:16:59;9.60;99.90
11025;DHT22;22890;51.820;8.682;2024-02-26T13:19:27;9.60;99.90
11025;DHT22;22890;51.820;8.682;2024-02-26T13:21:55;9.60;99.90
11025;DHT22;22890;51.820;8.682;2024-02-26T13:24:22;9.60;99.90
11025;DHT22;22890;51.820;8.682;2024-02-26T13:26:55;9.60;99.90
11025;DHT22;22890;51.820;8.682;2024-02-26T13:29:22;9.50;99.90
11025;DHT22;22890;51.820;8.682;2024-02-26T13:32:02;9.50;99.90
11025;DHT22;22890;51.820;8.682;2024-02-26T13:34:30;9.50;99.90
11025;DHT22;22890;51.820;8.682;2024-02-26T13:36:57;9.40;99.90
11025;DHT22;22890;51.820;8.682;2024-02-26T13:39:28;9.40;99.90
11025;DHT22;22890;51.820;8.682;2024-02-26T13:41:55;9.30;99.90
11025;DHT22;22890;51.820;8.682;2024-02-26T13:44:23;9.30;99.90
11025;DHT22;22890;51.820;8.682;2024-02-26T13:46:50;9.30;99.90
11025;DHT22;22890;51.820;8.682;2024-02-26T13:54:12;9.20;99.90
11025;DHT22;22890;51.820;8.682;2024-02-26T13:56:40;9.20;99.90
11025;DHT22;22890;51.820;8.682;2024-02-26T13:59:10;9.20;99.90
11025;DHT22;22890;51.820;8.682;2024-02-26T14:04:04;9.20;99.90
11025;DHT22;22890;51.820;8.682;2024-02-26T14:06:31;9.20;99.90
11025;DHT22;22890;51.820;8.682;2024-02-26T14:08:58;9.10;99.90
11025;DHT22;22890;51.820;8.682;2024-02-26T14:11:26;9.10;99.90
11025;DHT22;22890;51.820;8.682;2024-02-26T14:13:52;9.10;99.90
11025;DHT22;22890;51.820;8.682;2024-02-26T14:16:19;9.10;99.90
11025;DHT22;22890;51.820;8.682;2024-02-26T14:18:47;9.10;99.90
11025;DHT22;22890;51.820;8.682;2024-02-26T14:21:14;9.10;99.90
11025;DHT22;22890;51.820;8.682;2024-02-26T14:23:41;9.10;99.90
11025;DHT22;22890;51.820;8.682;2024-02-26T14:26:09;9.10;99.90
11025;DHT22;22890;51.820;8.682;2024-02-26T14:28:36;9.10;99.90
11025;DHT22;22890;51.820;8.682;2024-02-26T14:31:05;9.10;99.90
11025;DHT22;22890;51.820;8.682;2024-02-26T14:33:33;9.10;99.90
11025;DHT22;22890;51.820;8.682;2024-02-26T14:36:00;9.10;99.90
11025;DHT22;22890;51.820;8.682;2024-02-26T14:38:28;9.10;99.90
11025;DHT22;22890;51.820;8.682;2024-02-26T14:43:22;9.10;99.90
11025;DHT22;22890;51.820;8.682;2024-02-26T14:45:49;11.50;99.90
11025;DHT22;22890;51.820;8.682;2024-02-26T14:48:16;9.10;99.90
11025;DHT22;22890;51.820;8.682;2024-02-26T14:50:43;9.10;99.90
11025;DHT22;22890;51.820;8.682;2024-02-26T14:53:10;9.10;99.90
11025;DHT22;22890;51.820;8.682;2024-02-26T14:55:36;9.10;99.90
11025;DHT22;22890;51.820;8.682;2024-02-26T14:58:05;9.10;99.90
11025;DHT22;22890;51.820;8.682;2024-02-26T15:00:32;9.10;99.90
11025;DHT22;22890;51.820;8.682;2024-02-26T15:03:01;9.10;99.90
11025;DHT22;22890;51.820;8.682;2024-02-26T15:05:28;9.00;99.90
11025;DHT22;22890;51.820;8.682;2024-02-26T15:07:55;9.00;99.90
11025;DHT22;22890;51.820;8.682;2024-02-26T15:12:49;9.00;99.90
11025;DHT22;22890;51.820;8.682;2024-02-26T15:15:17;9.00;99.90
11025;DHT22;22890;51.820;8.682;2024-02-26T15:17:44;9.00;99.90
11025;DHT22;22890;51.820;8.682;2024-02-26T15:20:11;9.00;99.90
11025;DHT22;22890;51.820;8.682;2024-02-26T15:22:38;9.00;99.90
11025;DHT22;22890;51.820;8.682;2024-02-26T15:25:05;9.00;99.90
11025;DHT22;22890;51.820;8.682;2024-02-26T15:27:31;9.00;99.90
11025;DHT22;22890;51.820;8.682;2024-02-26T15:29:58;9.10;99.90
11025;DHT22;22890;51.820;8.682;2024-02-26T15:32:26;9.00;99.90
11025;DHT22;22890;51.820;8.682;2024-02-26T15:34:54;9.00;99.90
11025;DHT22;22890;51.820;8.682;2024-02-26T15:37:21;9.00;99.90
11025;DHT22;22890;51.820;8.682;2024-02-26T15:39:48;9.00;99.90
11025;DHT22;22890;51.820;8.682;2024-02-26T15:42:15;9.00;99.90
11025;DHT22;22890;51.820;8.682;2024-02-26T15:44:41;9.00;99.90
11025;DHT22;22890;51.820;8.682;2024-02-26T15:49:35;9.00;99.90
11025;DHT22;22890;51.820;8.682;2024-02-26T15:52:02;9.00;99.90
11025;DHT22;22890;51.820;8.682;2024-02-26T15:54:30;9.00;99.90
11025;DHT22;22890;51.820;8.682;2024-02-26T15:56:57;9.00;99.90
11025;DHT22;22890;51.820;8.682;2024-02-26T15:59:24;9.00;99.90
11025;DHT22;22890;51.820;8.682;2024-02-26T16:01:51;9.00;99.90
11025;DHT22;22890;51.820;8.682;2024-02-26T16:04:18;9.00;99.90
11025;DHT22;22890;51.820;8.682;2024-02-26T16:06:48;9.00;99.90
11025;DHT22;22890;51.820;8.682;2024-02-26T16:11:43;8.90;99.90
11025;DHT22;22890;51.820;8.682;2024-02-26T16:14:48;8.90;99.90
11025;DHT22;22890;51.820;8.682;2024-02-26T16:17:22;8.90;99.90
11025;DHT22;22890;51.820;8.682;2024-02-26T16:19:50;8.90;99.90
11025;DHT22;22890;51.820;8.682;2024-02-26T16:22:18;8.90;99.90
11025;DHT22;22890;51.820;8.682;2024-02-26T16:24:45;8.80;99.90
11025;DHT22;22890;51.820;8.682;2024-02-26T16:27:11;8.90;99.90
11025;DHT22;22890;51.820;8.682;2024-02-26T16:29:38;8.90;99.90
11025;DHT22;22890;51.820;8.682;2024-02-26T16:32:05;9.10;99.90
11025;DHT22;22890;51.820;8.682;2024-02-26T16:34:32;8.80;99.90
11025;DHT22;22890;51.820;8.682;2024-02-26T16:36:59;8.90;99.90
11025;DHT22;22890;51.820;8.682;2024-02-26T16:39:30;8.80;99.90
11025;DHT22;22890;51.820;8.682;2024-02-26T16:41:57;8.70;99.90
11025;DHT22;22890;51.820;8.682;2024-02-26T16:44:23;8.80;99.90
11025;DHT22;22890;51.820;8.682;2024-02-26T16:46:50;8.70;99.90
11025;DHT22;22890;51.820;8.682;2024-02-26T16:49:17;8.80;99.90
11025;DHT22;22890;51.820;8.682;2024-02-26T16:51:44;8.80;99.90
11025;DHT22;22890;51.820;8.682;2024-02-26T16:54:10;8.80;99.90
11025;DHT22;22890;51.820;8.682;2024-02-26T16:56:37;8.70;99.90
11025;DHT22;22890;51.820;8.682;2024-02-26T16:59:04;8.70;99.90
11025;DHT22;22890;51.820;8.682;2024-02-26T17:01:31;8.70;99.90
11025;DHT22;22890;51.820;8.682;2024-02-26T17:03:58;8.70;99.90
11025;DHT22;22890;51.820;8.682;2024-02-26T17:06:25;8.70;99.90
11025;DHT22;22890;51.820;8.682;2024-02-26T17:08:52;8.70;99.90
11025;DHT22;22890;51.820;8.682;2024-02-26T17:11:20;10.90;99.90
11025;DHT22;22890;51.820;8.682;2024-02-26T17:13:47;8.60;99.90
11025;DHT22;22890;51.820;8.682;2024-02-26T17:16:13;8.60;99.90
11025;DHT22;22890;51.820;8.682;2024-02-26T17:18:40;8.70;99.90
11025;DHT22;22890;51.820;8.682;2024-02-26T17:21:07;8.00;99.90
11025;DHT22;22890;51.820;8.682;2024-02-26T17:23:35;8.60;99.90
11025;DHT22;22890;51.820;8.682;2024-02-26T17:26:02;8.60;99.90
11025;DHT22;22890;51.820;8.682;2024-02-26T17:28:30;8.60;99.90